sensor_id;sensor_type;location;lat;lon;timestamp;temperature;humidity
43338;DHT22;28933;52.492;13.434;2022-07-23T00:01:26;21.60;88.80
43338;DHT22;28933;52.492;13.434;2022-07-23T00:03:53;21.60;88.50
43338;DHT22;28933;52.492;13.434;2022-07-23T00:06:20;21.50;88.60
43338;DHT22;28933;52.492;13.434;2022-07-23T00:08:45;21.50;88.60
43338;DHT22;28933;52.492;13.434;2022-07-23T00:11:11;21.50;88.40
43338;DHT22;28933;52.492;13.434;2022-07-23T00:13:36;21.40;88.00
43338;DHT22;28933;52.492;13.434;2022-07-23T00:16:02;21.40;88.10
43338;DHT22;28933;52.492;13.434;2022-07-23T00:18:28;21.30;87.90
43338;DHT22;28933;52.492;13.434;2022-07-23T00:20:53;21.30;88.20
43338;DHT22;28933;52.492;13.434;2022-07-23T00:23:19;21.30;88.30
43338;DHT22;28933;52.492;13.434;2022-07-23T00:25:44;21.30;88.20
43338;DHT22;28933;52.492;13.434;2022-07-23T00:28:10;21.30;88.20
43338;DHT22;28933;52.492;13.434;2022-07-23T00:30:36;21.30;88.30
43338;DHT22;28933;52.492;13.434;2022-07-23T00:33:07;21.30;88.30
43338;DHT22;28933;52.492;13.434;2022-07-23T00:35:34;21.20;88.40
43338;DHT22;28933;52.492;13.434;2022-07-23T00:38:01;21.30;88.50
43338;DHT22;28933;52.492;13.434;2022-07-23T00:40:28;21.30;88.60
43338;DHT22;28933;52.492;13.434;2022-07-23T00:42:54;21.30;88.50
43338;DHT22;28933;52.492;13.434;2022-07-23T00:45:20;21.30;88.50
43338;DHT22;28933;52.492;13.434;2022-07-23T00:47:46;21.30;88.50
43338;DHT22;28933;52.492;13.434;2022-07-23T00:50:11;21.20;88.40
43338;DHT22;28933;52.492;13.434;2022-07-23T00:52:38;21.30;88.50
43338;DHT22;28933;52.492;13.434;2022-07-23T00:55:06;21.20;88.60
43338;DHT22;28933;52.492;13.434;2022-07-23T00:57:31;21.20;88.50
43338;DHT22;28933;52.492;13.434;2022-07-23T00:59:57;21.20;88.60
43338;DHT22;28933;52.492;13.434;2022-07-23T01:02:24;21.20;88.80
43338;DHT22;28933;52.492;13.434;2022-07-23T01:04:50;21.10;88.60
43338;DHT22;28933;52.492;13.434;2022-07-23T01:07:16;21.10;88.50
43338;DHT22;28933;52.492;13.434;2022-07-23T01:09:44;21.10;88.50
43338;DHT22;28933;52.492;13.434;2022-07-23T01:12:10;21.10;88.50
43338;DHT22;28933;52.492;13.434;2022-07-23T01:14:35;21.00;88.40
43338;DHT22;28933;52.492;13.434;2022-07-23T01:17:01;21.00;88.70
43338;DHT22;28933;52.492;13.434;2022-07-23T01:19:27;20.90;89.00
43338;DHT22;28933;52.492;13.434;2022-07-23T01:21:53;20.90;89.20
43338;DHT22;28933;52.492;13.434;2022-07-23T01:24:20;20.90;89.20
43338;DHT22;28933;52.492;13.434;2022-07-23T01:26:47;20.90;89.20
43338;DHT22;28933;52.492;13.434;2022-07-23T01:29:13;20.90;89.30
43338;DHT22;28933;52.492;13.434;2022-07-23T01:31:39;20.80;89.30
43338;DHT22;28933;52.492;13.434;2022-07-23T01:34:05;20.80;89.40
43338;DHT22;28933;52.492;13.434;2022-07-23T01:36:32;20.80;89.40
43338;DHT22;28933;52.492;13.434;2022-07-23T01:38:58;20.80;89.50
43338;DHT22;28933;52.492;13.434;2022-07-23T01:41:24;20.80;89.70
43338;DHT22;28933;52.492;13.434;2022-07-23T01:43:50;20.80;89.70
43338;DHT22;28933;52.492;13.434;2022-07-23T01:46:15;20.80;89.80
43338;DHT22;28933;52.492;13.434;2022-07-23T01:48:41;20.70;89.90
43338;DHT22;28933;52.492;13.434;2022-07-23T01:51:07;20.70;89.90
43338;DHT22;28933;52.492;13.434;2022-07-23T01:53:33;20.70;90.00
43338;DHT22;28933;52.492;13.434;2022-07-23T01:55:59;20.60;90.10
43338;DHT22;28933;52.492;13.434;2022-07-23T01:58:26;20.60;90.10
43338;DHT22;28933;52.492;13.434;2022-07-23T02:00:53;20.60;90.20
43338;DHT22;28933;52.492;13.434;2022-07-23T02:03:18;20.60;90.30
43338;DHT22;28933;52.492;13.434;2022-07-23T02:05:44;20.60;90.40
43338;DHT22;28933;52.492;13.434;2022-07-23T02:08:10;20.60;90.40
43338;DHT22;28933;52.492;13.434;2022-07-23T02:10:35;20.60;90.50
43338;DHT22;28933;52.492;13.434;2022-07-23T02:13:01;20.50;90.50
43338;DHT22;28933;52.492;13.434;2022-07-23T02:15:26;20.50;90.60
43338;DHT22;28933;52.492;13.434;2022-07-23T02:17:54;20.60;90.60
43338;DHT22;28933;52.492;13.434;2022-07-23T02:20:19;20.50;90.60
43338;DHT22;28933;52.492;13.434;2022-07-23T02:22:45;20.50;90.60
43338;DHT22;28933;52.492;13.434;2022-07-23T02:25:11;20.50;90.60
43338;DHT22;28933;52.492;13.434;2022-07-23T02:27:37;20.50;90.50
43338;DHT22;28933;52.492;13.434;2022-07-23T02:30:03;20.50;90.40
43338;DHT22;28933;52.492;13.434;2022-07-23T02:32:29;20.50;90.30
43338;DHT22;28933;52.492;13.434;2022-07-23T02:34:55;20.50;90.40
43338;DHT22;28933;52.492;13.434;2022-07-23T02:37:21;20.40;90.30
43338;DHT22;28933;52.492;13.434;2022-07-23T02:39:46;20.30;90.40
43338;DHT22;28933;52.492;13.434;2022-07-23T02:42:13;20.30;90.40
43338;DHT22;28933;52.492;13.434;2022-07-23T02:44:39;20.30;90.50
43338;DHT22;28933;52.492;13.434;2022-07-23T02:47:05;20.20;90.50
43338;DHT22;28933;52.492;13.434;2022-07-23T02:49:31;20.20;90.50
43338;DHT22;28933;52.492;13.434;2022-07-23T02:51:56;20.20;90.50
43338;DHT22;28933;52.492;13.434;2022-07-23T02:54:22;20.20;90.50
43338;DHT22;28933;52.492;13.434;2022-07-23T02:56:47;20.20;90.60
43338;DHT22;28933;52.492;13.434;2022-07-23T02:59:13;20.10;90.70
43338;DHT22;28933;52.492;13.434;2022-07-23T03:01:38;20.10;90.70
43338;DHT22;28933;52.492;13.434;2022-07-23T03:04:04;20.10;90.70
43338;DHT22;28933;52.492;13.434;2022-07-23T03:06:30;20.00;90.70
43338;DHT22;28933;52.492;13.434;2022-07-23T03:08:55;19.90;90.80
43338;DHT22;28933;52.492;13.434;2022-07-23T03:11:21;19.90;90.90
43338;DHT22;28933;52.492;13.434;2022-07-23T03:13:46;19.80;90.90
43338;DHT22;28933;52.492;13.434;2022-07-23T03:16:12;19.80;91.00
43338;DHT22;28933;52.492;13.434;2022-07-23T03:18:37;19.70;91.00
43338;DHT22;28933;52.492;13.434;2022-07-23T03:21:03;19.60;91.20
43338;DHT22;28933;52.492;13.434;2022-07-23T03:23:29;19.60;91.30
43338;DHT22;28933;52.492;13.434;2022-07-23T03:25:54;19.60;91.40
43338;DHT22;28933;52.492;13.434;2022-07-23T03:28:20;19.60;91.50
43338;DHT22;28933;52.492;13.434;2022-07-23T03:30:47;19.60;91.60
43338;DHT22;28933;52.492;13.434;2022-07-23T03:33:14;19.50;91.70
43338;DHT22;28933;52.492;13.434;2022-07-23T03:35:39;19.50;91.70
43338;DHT22;28933;52.492;13.434;2022-07-23T03:38:05;19.40;91.80
43338;DHT22;28933;52.492;13.434;2022-07-23T03:40:31;19.40;91.80
43338;DHT22;28933;52.492;13.434;2022-07-23T03:42:56;19.40;91.90
43338;DHT22;28933;52.492;13.434;2022-07-23T03:45:22;19.40;92.00
43338;DHT22;28933;52.492;13.434;2022-07-23T03:47:47;19.30;91.90
43338;DHT22;28933;52.492;13.434;2022-07-23T03:50:13;19.20;91.80
43338;DHT22;28933;52.492;13.434;2022-07-23T03:52:39;19.20;91.80
43338;DHT22;28933;52.492;13.434;2022-07-23T03:55:04;19.20;91.80
43338;DHT22;28933;52.492;13.434;2022-07-23T03:57:30;19.20;91.80
43338;DHT22;28933;52.492;13.434;2022-07-23T03:59:56;19.10;91.90
43338;DHT22;28933;52.492;13.434;2022-07-23T04:02:22;19.10;91.90
43338;DHT22;28933;52.492;13.434;2022-07-23T04:04:47;19.10;91.90
43338;DHT22;28933;52.492;13.434;2022-07-23T04:07:14;19.10;91.80
43338;DHT22;28933;52.492;13.434;2022-07-23T04:09:39;19.10;91.70
43338;DHT22;28933;52.492;13.434;2022-07-23T04:12:06;19.20;91.70
43338;DHT22;28933;52.492;13.434;2022-07-23T04:14:33;19.20;91.60
43338;DHT22;28933;52.492;13.434;2022-07-23T04:16:58;19.10;91.60
43338;DHT22;28933;52.492;13.434;2022-07-23T04:19:25;19.10;91.50
43338;DHT22;28933;52.492;13.434;2022-07-23T04:21:50;19.10;91.50
43338;DHT22;28933;52.492;13.434;2022-07-23T04:24:16;19.10;91.40
43338;DHT22;28933;52.492;13.434;2022-07-23T04:26:41;19.10;91.30
43338;DHT22;28933;52.492;13.434;2022-07-23T04:29:07;19.10;91.40
43338;DHT22;28933;52.492;13.434;2022-07-23T04:31:32;19.10;91.30
43338;DHT22;28933;52.492;13.434;2022-07-23T04:33:58;19.00;91.20
43338;DHT22;28933;52.492;13.434;2022-07-23T04:36:24;18.90;91.10
43338;DHT22;28933;52.492;13.434;2022-07-23T04:38:49;19.00;91.10
43338;DHT22;28933;52.492;13.434;2022-07-23T04:41:15;18.90;91.20
43338;DHT22;28933;52.492;13.434;2022-07-23T04:43:40;18.90;91.40
43338;DHT22;28933;52.492;13.434;2022-07-23T04:46:06;18.90;91.50
43338;DHT22;28933;52.492;13.434;2022-07-23T04:48:31;18.80;92.10
43338;DHT22;28933;52.492;13.434;2022-07-23T04:50:57;18.90;92.00
43338;DHT22;28933;52.492;13.434;2022-07-23T04:53:23;18.80;92.10
43338;DHT22;28933;52.492;13.434;2022-07-23T04:55:49;18.80;92.20
43338;DHT22;28933;52.492;13.434;2022-07-23T04:58:14;18.70;92.30
43338;DHT22;28933;52.492;13.434;2022-07-23T05:00:40;18.70;92.60
43338;DHT22;28933;52.492;13.434;2022-07-23T05:03:06;18.70;93.10
43338;DHT22;28933;52.492;13.434;2022-07-23T05:05:31;18.70;93.20
43338;DHT22;28933;52.492;13.434;2022-07-23T05:07:57;18.60;93.10
43338;DHT22;28933;52.492;13.434;2022-07-23T05:10:22;18.50;93.50
43338;DHT22;28933;52.492;13.434;2022-07-23T05:12:48;18.40;93.60
43338;DHT22;28933;52.492;13.434;2022-07-23T05:15:14;18.30;93.60
43338;DHT22;28933;52.492;13.434;2022-07-23T05:17:39;18.20;94.00
43338;DHT22;28933;52.492;13.434;2022-07-23T05:20:05;18.20;94.30
43338;DHT22;28933;52.492;13.434;2022-07-23T05:22:31;18.20;94.40
43338;DHT22;28933;52.492;13.434;2022-07-23T05:24:56;18.10;94.50
43338;DHT22;28933;52.492;13.434;2022-07-23T05:27:22;18.20;94.70
43338;DHT22;28933;52.492;13.434;2022-07-23T05:29:47;18.10;94.60
43338;DHT22;28933;52.492;13.434;2022-07-23T05:32:13;18.10;94.80
43338;DHT22;28933;52.492;13.434;2022-07-23T05:34:38;18.00;95.00
43338;DHT22;28933;52.492;13.434;2022-07-23T05:37:05;18.00;94.90
43338;DHT22;28933;52.492;13.434;2022-07-23T05:39:30;17.90;95.10
43338;DHT22;28933;52.492;13.434;2022-07-23T05:41:56;17.90;95.20
43338;DHT22;28933;52.492;13.434;2022-07-23T05:44:21;17.90;95.30
43338;DHT22;28933;52.492;13.434;2022-07-23T05:46:47;17.90;95.60
43338;DHT22;28933;52.492;13.434;2022-07-23T05:49:13;17.90;95.80
43338;DHT22;28933;52.492;13.434;2022-07-23T05:51:38;18.00;96.00
43338;DHT22;28933;52.492;13.434;2022-07-23T05:54:04;18.00;95.80
43338;DHT22;28933;52.492;13.434;2022-07-23T05:56:29;18.00;96.00
43338;DHT22;28933;52.492;13.434;2022-07-23T05:58:55;18.00;96.20
43338;DHT22;28933;52.492;13.434;2022-07-23T06:01:20;18.10;96.40
43338;DHT22;28933;52.492;13.434;2022-07-23T06:03:46;18.10;96.60
43338;DHT22;28933;52.492;13.434;2022-07-23T06:06:11;18.20;96.80
43338;DHT22;28933;52.492;13.434;2022-07-23T06:08:37;18.20;96.80
43338;DHT22;28933;52.492;13.434;2022-07-23T06:11:02;18.20;96.70
43338;DHT22;28933;52.492;13.434;2022-07-23T06:13:28;18.20;96.80
43338;DHT22;28933;52.492;13.434;2022-07-23T06:15:53;18.20;96.60
43338;DHT22;28933;52.492;13.434;2022-07-23T06:18:19;18.20;96.70
43338;DHT22;28933;52.492;13.434;2022-07-23T06:20:44;18.20;96.70
43338;DHT22;28933;52.492;13.434;2022-07-23T06:23:10;18.20;96.90
43338;DHT22;28933;52.492;13.434;2022-07-23T06:25:38;18.20;97.00
43338;DHT22;28933;52.492;13.434;2022-07-23T06:28:04;18.20;97.20
43338;DHT22;28933;52.492;13.434;2022-07-23T06:30:29;18.20;97.40
43338;DHT22;28933;52.492;13.434;2022-07-23T06:32:55;18.30;97.70
43338;DHT22;28933;52.492;13.434;2022-07-23T06:35:20;18.40;97.90
43338;DHT22;28933;52.492;13.434;2022-07-23T06:37:46;18.40;98.00
43338;DHT22;28933;52.492;13.434;2022-07-23T06:40:12;18.40;98.00
43338;DHT22;28933;52.492;13.434;2022-07-23T06:42:38;18.40;97.90
43338;DHT22;28933;52.492;13.434;2022-07-23T06:45:05;18.40;97.80
43338;DHT22;28933;52.492;13.434;2022-07-23T06:47:31;18.40;98.00
43338;DHT22;28933;52.492;13.434;2022-07-23T06:49:57;18.40;98.20
43338;DHT22;28933;52.492;13.434;2022-07-23T06:52:22;18.40;98.20
43338;DHT22;28933;52.492;13.434;2022-07-23T06:54:48;18.50;98.10
43338;DHT22;28933;52.492;13.434;2022-07-23T06:57:14;18.50;98.00
43338;DHT22;28933;52.492;13.434;2022-07-23T06:59:40;18.60;98.30
43338;DHT22;28933;52.492;13.434;2022-07-23T07:02:06;18.60;98.40
43338;DHT22;28933;52.492;13.434;2022-07-23T07:04:32;18.70;98.50
43338;DHT22;28933;52.492;13.434;2022-07-23T07:06:57;18.80;98.70
43338;DHT22;28933;52.492;13.434;2022-07-23T07:09:23;18.80;98.60
43338;DHT22;28933;52.492;13.434;2022-07-23T07:11:50;18.80;98.50
43338;DHT22;28933;52.492;13.434;2022-07-23T07:14:15;18.80;98.60
43338;DHT22;28933;52.492;13.434;2022-07-23T07:16:41;18.90;98.70
43338;DHT22;28933;52.492;13.434;2022-07-23T07:19:07;18.90;98.70
43338;DHT22;28933;52.492;13.434;2022-07-23T07:21:32;19.00;98.80
43338;DHT22;28933;52.492;13.434;2022-07-23T07:23:58;19.00;98.70
43338;DHT22;28933;52.492;13.434;2022-07-23T07:26:23;19.10;98.90
43338;DHT22;28933;52.492;13.434;2022-07-23T07:28:49;19.10;99.00
43338;DHT22;28933;52.492;13.434;2022-07-23T07:31:15;19.20;98.80
43338;DHT22;28933;52.492;13.434;2022-07-23T07:33:40;19.10;98.70
43338;DHT22;28933;52.492;13.434;2022-07-23T07:36:06;19.20;98.90
43338;DHT22;28933;52.492;13.434;2022-07-23T07:38:32;19.30;98.70
43338;DHT22;28933;52.492;13.434;2022-07-23T07:40:57;19.30;98.70
43338;DHT22;28933;52.492;13.434;2022-07-23T07:43:23;19.30;98.70
43338;DHT22;28933;52.492;13.434;2022-07-23T07:45:49;19.40;98.60
43338;DHT22;28933;52.492;13.434;2022-07-23T07:48:14;19.50;98.60
43338;DHT22;28933;52.492;13.434;2022-07-23T07:50:40;19.50;98.10
43338;DHT22;28933;52.492;13.434;2022-07-23T07:53:05;19.60;97.90
43338;DHT22;28933;52.492;13.434;2022-07-23T07:55:31;19.50;97.90
43338;DHT22;28933;52.492;13.434;2022-07-23T07:57:57;19.50;97.80
43338;DHT22;28933;52.492;13.434;2022-07-23T08:00:23;19.50;97.80
43338;DHT22;28933;52.492;13.434;2022-07-23T08:02:53;19.50;97.80
43338;DHT22;28933;52.492;13.434;2022-07-23T08:05:23;19.50;97.60
43338;DHT22;28933;52.492;13.434;2022-07-23T08:07:49;19.60;97.70
43338;DHT22;28933;52.492;13.434;2022-07-23T08:10:15;19.60;98.00
43338;DHT22;28933;52.492;13.434;2022-07-23T08:15:10;19.70;97.80
43338;DHT22;28933;52.492;13.434;2022-07-23T08:17:36;19.70;97.80
43338;DHT22;28933;52.492;13.434;2022-07-23T08:20:03;19.80;97.90
43338;DHT22;28933;52.492;13.434;2022-07-23T08:22:58;19.90;97.90
43338;DHT22;28933;52.492;13.434;2022-07-23T08:25:30;20.10;97.80
43338;DHT22;28933;52.492;13.434;2022-07-23T08:27:57;20.10;97.60
43338;DHT22;28933;52.492;13.434;2022-07-23T08:30:23;20.10;97.50
43338;DHT22;28933;52.492;13.434;2022-07-23T08:32:51;20.10;97.10
43338;DHT22;28933;52.492;13.434;2022-07-23T08:35:21;20.10;96.70
43338;DHT22;28933;52.492;13.434;2022-07-23T08:37:47;20.10;96.60
43338;DHT22;28933;52.492;13.434;2022-07-23T08:40:13;20.00;96.80
43338;DHT22;28933;52.492;13.434;2022-07-23T08:42:38;20.10;96.70
43338;DHT22;28933;52.492;13.434;2022-07-23T08:45:07;20.10;97.20
43338;DHT22;28933;52.492;13.434;2022-07-23T08:47:33;20.20;97.20
43338;DHT22;28933;52.492;13.434;2022-07-23T08:50:00;20.30;96.80
43338;DHT22;28933;52.492;13.434;2022-07-23T08:52:26;20.40;96.40
43338;DHT22;28933;52.492;13.434;2022-07-23T08:54:52;20.40;96.40
43338;DHT22;28933;52.492;13.434;2022-07-23T08:57:19;20.50;96.50
43338;DHT22;28933;52.492;13.434;2022-07-23T08:59:44;20.60;95.80
43338;DHT22;28933;52.492;13.434;2022-07-23T09:02:10;20.50;95.70
43338;DHT22;28933;52.492;13.434;2022-07-23T09:04:39;20.60;95.80
43338;DHT22;28933;52.492;13.434;2022-07-23T09:07:05;20.70;96.00
43338;DHT22;28933;52.492;13.434;2022-07-23T09:09:30;20.80;96.10
43338;DHT22;28933;52.492;13.434;2022-07-23T09:12:07;20.90;95.80
43338;DHT22;28933;52.492;13.434;2022-07-23T09:14:44;20.90;95.30
43338;DHT22;28933;52.492;13.434;2022-07-23T09:17:13;21.00;94.80
43338;DHT22;28933;52.492;13.434;2022-07-23T09:19:41;21.00;94.70
43338;DHT22;28933;52.492;13.434;2022-07-23T09:22:17;21.10;94.20
43338;DHT22;28933;52.492;13.434;2022-07-23T09:27:58;21.10;94.20
43338;DHT22;28933;52.492;13.434;2022-07-23T09:30:29;21.20;93.80
43338;DHT22;28933;52.492;13.434;2022-07-23T09:38:11;21.30;93.90
43338;DHT22;28933;52.492;13.434;2022-07-23T09:40:37;21.30;93.90
43338;DHT22;28933;52.492;13.434;2022-07-23T09:43:02;21.30;93.60
43338;DHT22;28933;52.492;13.434;2022-07-23T09:45:28;21.40;93.40
43338;DHT22;28933;52.492;13.434;2022-07-23T09:48:16;21.40;93.70
43338;DHT22;28933;52.492;13.434;2022-07-23T09:50:44;21.50;92.80
43338;DHT22;28933;52.492;13.434;2022-07-23T09:53:24;21.50;93.10
43338;DHT22;28933;52.492;13.434;2022-07-23T09:55:51;21.70;92.80
43338;DHT22;28933;52.492;13.434;2022-07-23T09:58:20;21.70;92.40
43338;DHT22;28933;52.492;13.434;2022-07-23T10:00:47;21.70;91.80
43338;DHT22;28933;52.492;13.434;2022-07-23T10:03:15;21.70;91.60
43338;DHT22;28933;52.492;13.434;2022-07-23T10:05:42;21.80;91.60
43338;DHT22;28933;52.492;13.434;2022-07-23T10:08:11;22.00;92.00
43338;DHT22;28933;52.492;13.434;2022-07-23T10:10:39;22.20;92.40
43338;DHT22;28933;52.492;13.434;2022-07-23T10:13:05;22.40;92.30
43338;DHT22;28933;52.492;13.434;2022-07-23T10:15:50;22.50;91.50
43338;DHT22;28933;52.492;13.434;2022-07-23T10:18:16;22.60;91.30
43338;DHT22;28933;52.492;13.434;2022-07-23T10:20:42;22.60;91.20
43338;DHT22;28933;52.492;13.434;2022-07-23T10:26:18;22.70;89.80
43338;DHT22;28933;52.492;13.434;2022-07-23T10:29:08;22.70;90.10
43338;DHT22;28933;52.492;13.434;2022-07-23T10:32:08;22.80;89.90
43338;DHT22;28933;52.492;13.434;2022-07-23T10:34:55;22.80;89.70
43338;DHT22;28933;52.492;13.434;2022-07-23T10:37:28;23.00;90.00
43338;DHT22;28933;52.492;13.434;2022-07-23T10:40:19;23.10;88.90
43338;DHT22;28933;52.492;13.434;2022-07-23T10:42:46;23.10;88.20
43338;DHT22;28933;52.492;13.434;2022-07-23T10:47:50;23.10;88.50
43338;DHT22;28933;52.492;13.434;2022-07-23T10:50:28;23.20;88.50
43338;DHT22;28933;52.492;13.434;2022-07-23T10:57:58;23.50;87.70
43338;DHT22;28933;52.492;13.434;2022-07-23T11:00:25;23.60;87.90
43338;DHT22;28933;52.492;13.434;2022-07-23T11:02:53;23.70;87.60
43338;DHT22;28933;52.492;13.434;2022-07-23T11:05:38;23.80;87.20
43338;DHT22;28933;52.492;13.434;2022-07-23T11:10:34;23.80;86.20
43338;DHT22;28933;52.492;13.434;2022-07-23T11:13:26;23.80;86.20
43338;DHT22;28933;52.492;13.434;2022-07-23T11:24:04;23.90;85.20
43338;DHT22;28933;52.492;13.434;2022-07-23T11:34:40;24.10;84.70
43338;DHT22;28933;52.492;13.434;2022-07-23T11:37:08;24.20;84.00
43338;DHT22;28933;52.492;13.434;2022-07-23T11:39:34;24.20;83.10
43338;DHT22;28933;52.492;13.434;2022-07-23T11:42:02;24.20;82.60
43338;DHT22;28933;52.492;13.434;2022-07-23T11:44:37;24.30;82.60
43338;DHT22;28933;52.492;13.434;2022-07-23T11:47:08;24.30;81.40
43338;DHT22;28933;52.492;13.434;2022-07-23T11:49:35;24.40;82.00
43338;DHT22;28933;52.492;13.434;2022-07-23T11:52:10;24.40;79.90
43338;DHT22;28933;52.492;13.434;2022-07-23T11:54:57;24.40;80.90
43338;DHT22;28933;52.492;13.434;2022-07-23T11:57:38;24.40;80.40
43338;DHT22;28933;52.492;13.434;2022-07-23T12:00:08;24.40;81.20
43338;DHT22;28933;52.492;13.434;2022-07-23T12:02:36;24.50;81.20
43338;DHT22;28933;52.492;13.434;2022-07-23T12:05:03;24.70;80.40
43338;DHT22;28933;52.492;13.434;2022-07-23T12:07:34;24.80;80.40
43338;DHT22;28933;52.492;13.434;2022-07-23T12:10:09;25.00;80.10
43338;DHT22;28933;52.492;13.434;2022-07-23T12:12:40;25.10;79.70
43338;DHT22;28933;52.492;13.434;2022-07-23T12:15:08;25.20;78.30
43338;DHT22;28933;52.492;13.434;2022-07-23T12:17:36;25.20;79.60
43338;DHT22;28933;52.492;13.434;2022-07-23T12:20:08;25.30;79.30
43338;DHT22;28933;52.492;13.434;2022-07-23T12:22:37;25.40;78.20
43338;DHT22;28933;52.492;13.434;2022-07-23T12:25:14;25.50;77.70
43338;DHT22;28933;52.492;13.434;2022-07-23T12:27:41;25.50;77.70
43338;DHT22;28933;52.492;13.434;2022-07-23T12:30:19;25.50;77.10
43338;DHT22;28933;52.492;13.434;2022-07-23T12:32:49;25.50;77.30
43338;DHT22;28933;52.492;13.434;2022-07-23T12:35:16;25.50;76.40
43338;DHT22;28933;52.492;13.434;2022-07-23T12:37:44;25.50;76.40
43338;DHT22;28933;52.492;13.434;2022-07-23T12:40:27;25.50;76.60
43338;DHT22;28933;52.492;13.434;2022-07-23T12:45:23;25.50;76.60
43338;DHT22;28933;52.492;13.434;2022-07-23T12:47:58;25.60;76.00
43338;DHT22;28933;52.492;13.434;2022-07-23T12:50:42;25.60;76.10
43338;DHT22;28933;52.492;13.434;2022-07-23T12:53:14;25.70;75.80
43338;DHT22;28933;52.492;13.434;2022-07-23T12:55:40;25.70;76.50
43338;DHT22;28933;52.492;13.434;2022-07-23T12:58:15;25.80;76.50
43338;DHT22;28933;52.492;13.434;2022-07-23T13:03:29;25.80;75.90
43338;DHT22;28933;52.492;13.434;2022-07-23T13:05:56;25.90;75.50
43338;DHT22;28933;52.492;13.434;2022-07-23T13:08:23;25.90;74.20
43338;DHT22;28933;52.492;13.434;2022-07-23T13:10:50;25.70;72.80
43338;DHT22;28933;52.492;13.434;2022-07-23T13:13:19;25.50;73.00
43338;DHT22;28933;52.492;13.434;2022-07-23T13:15:46;25.40;74.00
43338;DHT22;28933;52.492;13.434;2022-07-23T13:18:11;25.40;73.60
43338;DHT22;28933;52.492;13.434;2022-07-23T13:20:37;25.40;73.40
43338;DHT22;28933;52.492;13.434;2022-07-23T13:23:05;25.60;73.40
43338;DHT22;28933;52.492;13.434;2022-07-23T13:25:31;25.70;72.40
43338;DHT22;28933;52.492;13.434;2022-07-23T13:27:56;25.80;72.20
43338;DHT22;28933;52.492;13.434;2022-07-23T13:30:22;25.70;73.50
43338;DHT22;28933;52.492;13.434;2022-07-23T13:32:49;25.80;73.40
43338;DHT22;28933;52.492;13.434;2022-07-23T13:35:15;26.10;73.30
43338;DHT22;28933;52.492;13.434;2022-07-23T13:37:42;26.20;71.70
43338;DHT22;28933;52.492;13.434;2022-07-23T13:40:09;26.30;72.70
43338;DHT22;28933;52.492;13.434;2022-07-23T13:42:35;26.30;73.00
43338;DHT22;28933;52.492;13.434;2022-07-23T13:45:01;26.40;72.90
43338;DHT22;28933;52.492;13.434;2022-07-23T13:47:27;26.20;70.90
43338;DHT22;28933;52.492;13.434;2022-07-23T13:49:53;26.10;70.90
43338;DHT22;28933;52.492;13.434;2022-07-23T13:52:18;26.10;70.10
43338;DHT22;28933;52.492;13.434;2022-07-23T13:54:44;25.90;70.80
43338;DHT22;28933;52.492;13.434;2022-07-23T13:57:10;26.00;71.70
43338;DHT22;28933;52.492;13.434;2022-07-23T13:59:36;26.10;71.90
43338;DHT22;28933;52.492;13.434;2022-07-23T14:02:03;26.10;71.20
43338;DHT22;28933;52.492;13.434;2022-07-23T14:04:29;26.10;70.60
43338;DHT22;28933;52.492;13.434;2022-07-23T14:06:55;26.10;70.50
43338;DHT22;28933;52.492;13.434;2022-07-23T14:09:21;26.00;70.10
43338;DHT22;28933;52.492;13.434;2022-07-23T14:11:46;25.90;70.50
43338;DHT22;28933;52.492;13.434;2022-07-23T14:14:12;25.90;71.40
43338;DHT22;28933;52.492;13.434;2022-07-23T14:16:38;26.00;70.40
43338;DHT22;28933;52.492;13.434;2022-07-23T14:19:03;26.00;71.60
43338;DHT22;28933;52.492;13.434;2022-07-23T14:21:29;26.10;71.70
43338;DHT22;28933;52.492;13.434;2022-07-23T14:23:54;26.10;71.70
43338;DHT22;28933;52.492;13.434;2022-07-23T14:26:20;26.20;71.80
43338;DHT22;28933;52.492;13.434;2022-07-23T14:28:46;26.30;71.40
43338;DHT22;28933;52.492;13.434;2022-07-23T14:31:12;26.30;69.50
43338;DHT22;28933;52.492;13.434;2022-07-23T14:33:37;26.30;69.30
43338;DHT22;28933;52.492;13.434;2022-07-23T14:36:03;26.40;68.30
43338;DHT22;28933;52.492;13.434;2022-07-23T14:38:29;26.50;68.40
43338;DHT22;28933;52.492;13.434;2022-07-23T14:40:56;26.60;68.90
43338;DHT22;28933;52.492;13.434;2022-07-23T14:43:23;26.60;68.90
43338;DHT22;28933;52.492;13.434;2022-07-23T14:45:48;26.80;67.70
43338;DHT22;28933;52.492;13.434;2022-07-23T14:48:14;26.80;67.40
43338;DHT22;28933;52.492;13.434;2022-07-23T14:50:40;27.00;67.70
43338;DHT22;28933;52.492;13.434;2022-07-23T14:53:06;27.20;67.00
43338;DHT22;28933;52.492;13.434;2022-07-23T14:55:32;27.30;66.30
43338;DHT22;28933;52.492;13.434;2022-07-23T14:57:58;27.50;65.80
43338;DHT22;28933;52.492;13.434;2022-07-23T15:00:24;27.50;65.20
43338;DHT22;28933;52.492;13.434;2022-07-23T15:02:52;27.50;65.30
43338;DHT22;28933;52.492;13.434;2022-07-23T15:05:19;27.30;64.10
43338;DHT22;28933;52.492;13.434;2022-07-23T15:07:44;27.00;63.80
43338;DHT22;28933;52.492;13.434;2022-07-23T15:10:11;26.80;64.50
43338;DHT22;28933;52.492;13.434;2022-07-23T15:12:36;26.70;64.90
43338;DHT22;28933;52.492;13.434;2022-07-23T15:15:03;26.70;65.50
43338;DHT22;28933;52.492;13.434;2022-07-23T15:17:29;26.60;64.20
43338;DHT22;28933;52.492;13.434;2022-07-23T15:19:54;26.60;64.40
43338;DHT22;28933;52.492;13.434;2022-07-23T15:22:21;26.60;64.80
43338;DHT22;28933;52.492;13.434;2022-07-23T15:24:46;26.70;64.30
43338;DHT22;28933;52.492;13.434;2022-07-23T15:27:12;26.90;64.80
43338;DHT22;28933;52.492;13.434;2022-07-23T15:29:37;27.00;63.60
43338;DHT22;28933;52.492;13.434;2022-07-23T15:32:04;27.00;63.00
43338;DHT22;28933;52.492;13.434;2022-07-23T15:34:29;26.80;62.90
43338;DHT22;28933;52.492;13.434;2022-07-23T15:37:00;26.80;62.90
43338;DHT22;28933;52.492;13.434;2022-07-23T15:39:26;26.80;62.90
43338;DHT22;28933;52.492;13.434;2022-07-23T15:41:52;26.80;62.50
43338;DHT22;28933;52.492;13.434;2022-07-23T15:44:18;26.90;62.40
43338;DHT22;28933;52.492;13.434;2022-07-23T15:46:43;27.00;62.20
43338;DHT22;28933;52.492;13.434;2022-07-23T15:49:09;27.10;62.00
43338;DHT22;28933;52.492;13.434;2022-07-23T15:51:37;27.20;62.20
43338;DHT22;28933;52.492;13.434;2022-07-23T15:54:03;27.30;61.00
43338;DHT22;28933;52.492;13.434;2022-07-23T15:56:28;27.40;60.80
43338;DHT22;28933;52.492;13.434;2022-07-23T15:58:54;27.50;59.90
43338;DHT22;28933;52.492;13.434;2022-07-23T16:01:20;27.60;60.60